sensor_id;sensor_type;location;lat;lon;timestamp;temperature;humidity
19342;DHT22;9807;48.258;12.690;2023-02-23T00:01:40;9.80;99.90
19342;DHT22;9807;48.258;12.690;2023-02-23T00:04:06;9.50;99.90
19342;DHT22;9807;48.258;12.690;2023-02-23T00:06:34;9.40;99.90
19342;DHT22;9807;48.258;12.690;2023-02-23T00:09:03;9.60;99.90
19342;DHT22;9807;48.258;12.690;2023-02-23T00:11:48;9.80;99.90
19342;DHT22;9807;48.258;12.690;2023-02-23T00:14:14;9.90;99.90
19342;DHT22;9807;48.258;12.690;2023-02-23T00:16:39;9.90;99.90
19342;DHT22;9807;48.258;12.690;2023-02-23T00:19:10;10.00;99.90
19342;DHT22;9807;48.258;12.690;2023-02-23T00:21:39;10.00;99.90
19342;DHT22;9807;48.258;12.690;2023-02-23T00:24:07;10.00;99.90
19342;DHT22;9807;48.258;12.690;2023-02-23T00:26:34;10.00;99.90
19342;DHT22;9807;48.258;12.690;2023-02-23T00:29:03;10.10;99.90
19342;DHT22;9807;48.258;12.690;2023-02-23T00:31:29;10.20;99.90
19342;DHT22;9807;48.258;12.690;2023-02-23T00:33:58;10.30;99.90
19342;DHT22;9807;48.258;12.690;2023-02-23T00:36:27;10.40;99.90
19342;DHT22;9807;48.258;12.690;2023-02-23T00:38:55;10.40;99.90
19342;DHT22;9807;48.258;12.690;2023-02-23T00:41:21;10.40;99.90
19342;DHT22;9807;48.258;12.690;2023-02-23T00:43:53;10.40;99.90
19342;DHT22;9807;48.258;12.690;2023-02-23T00:46:21;10.40;99.90
19342;DHT22;9807;48.258;12.690;2023-02-23T00:48:49;10.40;99.90
19342;DHT22;9807;48.258;12.690;2023-02-23T00:51:16;10.40;99.90
19342;DHT22;9807;48.258;12.690;2023-02-23T00:53:42;10.30;99.90
19342;DHT22;9807;48.258;12.690;2023-02-23T00:56:10;10.30;99.90
19342;DHT22;9807;48.258;12.690;2023-02-23T00:58:36;10.20;99.90
19342;DHT22;9807;48.258;12.690;2023-02-23T01:01:10;10.20;99.90
19342;DHT22;9807;48.258;12.690;2023-02-23T01:03:38;10.20;99.90
19342;DHT22;9807;48.258;12.690;2023-02-23T01:06:05;10.20;99.90
19342;DHT22;9807;48.258;12.690;2023-02-23T01:08:32;10.20;99.90
19342;DHT22;9807;48.258;12.690;2023-02-23T01:10:59;10.20;99.90
19342;DHT22;9807;48.258;12.690;2023-02-23T01:13:30;10.20;99.90
19342;DHT22;9807;48.258;12.690;2023-02-23T01:15:55;10.20;99.90
19342;DHT22;9807;48.258;12.690;2023-02-23T01:18:21;9.80;99.90
19342;DHT22;9807;48.258;12.690;2023-02-23T01:20:47;9.60;99.90
19342;DHT22;9807;48.258;12.690;2023-02-23T01:23:15;9.60;99.90
19342;DHT22;9807;48.258;12.690;2023-02-23T01:25:42;9.80;99.90
19342;DHT22;9807;48.258;12.690;2023-02-23T01:28:09;9.90;99.90
19342;DHT22;9807;48.258;12.690;2023-02-23T01:30:36;9.90;99.90
19342;DHT22;9807;48.258;12.690;2023-02-23T01:33:02;10.00;99.90
19342;DHT22;9807;48.258;12.690;2023-02-23T01:35:28;10.00;99.90
19342;DHT22;9807;48.258;12.690;2023-02-23T01:37:54;10.10;99.90
19342;DHT22;9807;48.258;12.690;2023-02-23T01:40:22;9.80;99.90
19342;DHT22;9807;48.258;12.690;2023-02-23T01:43:16;9.60;99.90
19342;DHT22;9807;48.258;12.690;2023-02-23T01:45:43;9.30;99.90
19342;DHT22;9807;48.258;12.690;2023-02-23T01:48:14;9.20;99.90
19342;DHT22;9807;48.258;12.690;2023-02-23T01:51:05;8.90;99.90
19342;DHT22;9807;48.258;12.690;2023-02-23T01:53:35;8.40;99.90
19342;DHT22;9807;48.258;12.690;2023-02-23T01:56:15;8.00;99.90
19342;DHT22;9807;48.258;12.690;2023-02-23T01:58:45;7.50;99.90
19342;DHT22;9807;48.258;12.690;2023-02-23T02:01:13;7.20;99.90
19342;DHT22;9807;48.258;12.690;2023-02-23T02:03:45;7.10;99.90
19342;DHT22;9807;48.258;12.690;2023-02-23T02:06:16;7.40;99.90
19342;DHT22;9807;48.258;12.690;2023-02-23T02:08:48;7.90;99.90
19342;DHT22;9807;48.258;12.690;2023-02-23T02:11:16;8.30;99.90
19342;DHT22;9807;48.258;12.690;2023-02-23T02:17:41;8.90;99.90
19342;DHT22;9807;48.258;12.690;2023-02-23T02:25:58;9.40;99.90
19342;DHT22;9807;48.258;12.690;2023-02-23T02:39:11;9.50;99.90
19342;DHT22;9807;48.258;12.690;2023-02-23T02:47:16;9.50;99.90
19342;DHT22;9807;48.258;12.690;2023-02-23T02:50:00;9.50;99.90
19342;DHT22;9807;48.258;12.690;2023-02-23T02:52:39;9.40;99.90
19342;DHT22;9807;48.258;12.690;2023-02-23T02:55:17;9.30;99.90
19342;DHT22;9807;48.258;12.690;2023-02-23T02:57:50;9.30;99.90
19342;DHT22;9807;48.258;12.690;2023-02-23T03:00:19;9.40;99.90
19342;DHT22;9807;48.258;12.690;2023-02-23T03:03:04;9.50;99.90
19342;DHT22;9807;48.258;12.690;2023-02-23T03:05:51;9.60;99.90
19342;DHT22;9807;48.258;12.690;2023-02-23T03:08:47;9.60;99.90
19342;DHT22;9807;48.258;12.690;2023-02-23T03:11:39;9.60;99.90
19342;DHT22;9807;48.258;12.690;2023-02-23T03:20:28;9.60;99.90
19342;DHT22;9807;48.258;12.690;2023-02-23T03:29:57;9.30;99.90
19342;DHT22;9807;48.258;12.690;2023-02-23T03:32:54;8.90;99.90
19342;DHT22;9807;48.258;12.690;2023-02-23T03:35:54;8.20;99.90
19342;DHT22;9807;48.258;12.690;2023-02-23T03:38:54;8.20;99.90
19342;DHT22;9807;48.258;12.690;2023-02-23T03:41:39;8.40;99.90
19342;DHT22;9807;48.258;12.690;2023-02-23T03:44:29;8.70;99.90
19342;DHT22;9807;48.258;12.690;2023-02-23T03:47:14;8.90;99.90
19342;DHT22;9807;48.258;12.690;2023-02-23T03:50:02;9.10;99.90
19342;DHT22;9807;48.258;12.690;2023-02-23T03:52:57;9.20;99.90
19342;DHT22;9807;48.258;12.690;2023-02-23T03:55:47;9.20;99.90
19342;DHT22;9807;48.258;12.690;2023-02-23T03:58:38;9.30;99.90
19342;DHT22;9807;48.258;12.690;2023-02-23T04:01:24;9.40;99.90
19342;DHT22;9807;48.258;12.690;2023-02-23T04:04:10;9.40;99.90
19342;DHT22;9807;48.258;12.690;2023-02-23T04:06:57;9.40;99.90
19342;DHT22;9807;48.258;12.690;2023-02-23T04:09:43;9.40;99.90
19342;DHT22;9807;48.258;12.690;2023-02-23T04:15:58;9.10;99.90
19342;DHT22;9807;48.258;12.690;2023-02-23T04:18:26;8.40;99.90
19342;DHT22;9807;48.258;12.690;2023-02-23T04:20:53;7.80;99.90
19342;DHT22;9807;48.258;12.690;2023-02-23T04:23:20;7.80;99.90
19342;DHT22;9807;48.258;12.690;2023-02-23T04:25:48;8.00;99.90
19342;DHT22;9807;48.258;12.690;2023-02-23T04:28:13;8.10;99.90
19342;DHT22;9807;48.258;12.690;2023-02-23T04:30:40;8.30;99.90
19342;DHT22;9807;48.258;12.690;2023-02-23T04:33:06;8.50;99.90
19342;DHT22;9807;48.258;12.690;2023-02-23T04:35:32;8.70;99.90
19342;DHT22;9807;48.258;12.690;2023-02-23T04:37:58;8.90;99.90
19342;DHT22;9807;48.258;12.690;2023-02-23T04:40:24;8.90;99.90
19342;DHT22;9807;48.258;12.690;2023-02-23T04:42:50;9.00;99.90
19342;DHT22;9807;48.258;12.690;2023-02-23T04:45:17;9.10;99.90
19342;DHT22;9807;48.258;12.690;2023-02-23T04:47:43;8.90;99.90
19342;DHT22;9807;48.258;12.690;2023-02-23T04:50:09;8.30;99.90
19342;DHT22;9807;48.258;12.690;2023-02-23T04:52:38;7.70;99.90
19342;DHT22;9807;48.258;12.690;2023-02-23T04:55:05;7.50;99.90
19342;DHT22;9807;48.258;12.690;2023-02-23T04:57:37;7.70;99.90
19342;DHT22;9807;48.258;12.690;2023-02-23T05:00:04;8.10;99.90
19342;DHT22;9807;48.258;12.690;2023-02-23T05:02:30;8.30;99.90
19342;DHT22;9807;48.258;12.690;2023-02-23T05:04:56;8.60;99.90
19342;DHT22;9807;48.258;12.690;2023-02-23T05:07:22;8.80;99.90
19342;DHT22;9807;48.258;12.690;2023-02-23T05:09:47;8.80;99.90
19342;DHT22;9807;48.258;12.690;2023-02-23T05:12:14;8.90;99.90
19342;DHT22;9807;48.258;12.690;2023-02-23T05:14:47;8.80;99.90
19342;DHT22;9807;48.258;12.690;2023-02-23T05:17:21;8.80;99.90
19342;DHT22;9807;48.258;12.690;2023-02-23T05:19:46;8.60;99.90
19342;DHT22;9807;48.258;12.690;2023-02-23T05:22:12;8.40;99.90
19342;DHT22;9807;48.258;12.690;2023-02-23T05:24:41;8.40;99.90
19342;DHT22;9807;48.258;12.690;2023-02-23T05:27:08;8.50;99.90
19342;DHT22;9807;48.258;12.690;2023-02-23T05:29:37;8.70;99.90
19342;DHT22;9807;48.258;12.690;2023-02-23T05:32:03;8.70;99.90
19342;DHT22;9807;48.258;12.690;2023-02-23T05:34:28;8.60;99.90
19342;DHT22;9807;48.258;12.690;2023-02-23T05:36:54;8.40;99.90
19342;DHT22;9807;48.258;12.690;2023-02-23T05:39:20;8.30;99.90
19342;DHT22;9807;48.258;12.690;2023-02-23T05:41:46;8.10;99.90
19342;DHT22;9807;48.258;12.690;2023-02-23T05:44:12;7.90;99.90
19342;DHT22;9807;48.258;12.690;2023-02-23T05:46:38;8.00;99.90
19342;DHT22;9807;48.258;12.690;2023-02-23T05:49:03;8.20;99.90
19342;DHT22;9807;48.258;12.690;2023-02-23T05:51:31;8.40;99.90
19342;DHT22;9807;48.258;12.690;2023-02-23T05:53:57;8.50;99.90
19342;DHT22;9807;48.258;12.690;2023-02-23T05:56:23;8.50;99.90
19342;DHT22;9807;48.258;12.690;2023-02-23T05:58:54;8.60;99.90
19342;DHT22;9807;48.258;12.690;2023-02-23T06:01:21;8.40;99.90
19342;DHT22;9807;48.258;12.690;2023-02-23T06:03:47;7.90;99.90
19342;DHT22;9807;48.258;12.690;2023-02-23T06:06:13;7.70;99.90
19342;DHT22;9807;48.258;12.690;2023-02-23T06:08:39;7.80;99.90
19342;DHT22;9807;48.258;12.690;2023-02-23T06:11:06;8.10;99.90
19342;DHT22;9807;48.258;12.690;2023-02-23T06:13:32;8.20;99.90
19342;DHT22;9807;48.258;12.690;2023-02-23T06:16:01;8.30;99.90
19342;DHT22;9807;48.258;12.690;2023-02-23T06:18:27;8.10;99.90
19342;DHT22;9807;48.258;12.690;2023-02-23T06:20:53;7.50;99.90
19342;DHT22;9807;48.258;12.690;2023-02-23T06:23:19;7.00;99.90
19342;DHT22;9807;48.258;12.690;2023-02-23T06:25:47;7.10;99.90
19342;DHT22;9807;48.258;12.690;2023-02-23T06:28:13;7.40;99.90
19342;DHT22;9807;48.258;12.690;2023-02-23T06:30:42;7.80;99.90
19342;DHT22;9807;48.258;12.690;2023-02-23T06:33:08;8.10;99.90
19342;DHT22;9807;48.258;12.690;2023-02-23T06:35:38;8.30;99.90
19342;DHT22;9807;48.258;12.690;2023-02-23T06:38:04;8.60;99.90
19342;DHT22;9807;48.258;12.690;2023-02-23T06:40:31;8.30;99.90
19342;DHT22;9807;48.258;12.690;2023-02-23T06:42:59;8.00;99.90
19342;DHT22;9807;48.258;12.690;2023-02-23T06:45:28;7.50;99.90
19342;DHT22;9807;48.258;12.690;2023-02-23T06:47:54;7.40;99.90
19342;DHT22;9807;48.258;12.690;2023-02-23T06:50:19;7.50;99.90
19342;DHT22;9807;48.258;12.690;2023-02-23T06:52:45;7.70;99.90
19342;DHT22;9807;48.258;12.690;2023-02-23T06:55:11;7.70;99.90
19342;DHT22;9807;48.258;12.690;2023-02-23T06:57:40;7.70;99.90
19342;DHT22;9807;48.258;12.690;2023-02-23T07:00:07;7.60;99.90
19342;DHT22;9807;48.258;12.690;2023-02-23T07:02:33;7.50;99.90
19342;DHT22;9807;48.258;12.690;2023-02-23T07:05:02;7.70;99.90
19342;DHT22;9807;48.258;12.690;2023-02-23T07:07:28;8.00;99.90
19342;DHT22;9807;48.258;12.690;2023-02-23T07:09:54;8.20;99.90
19342;DHT22;9807;48.258;12.690;2023-02-23T07:12:19;8.10;99.90
19342;DHT22;9807;48.258;12.690;2023-02-23T07:14:45;7.80;99.90
19342;DHT22;9807;48.258;12.690;2023-02-23T07:17:11;7.60;99.90
19342;DHT22;9807;48.258;12.690;2023-02-23T07:19:37;7.40;99.90
19342;DHT22;9807;48.258;12.690;2023-02-23T07:22:03;7.20;99.90
19342;DHT22;9807;48.258;12.690;2023-02-23T07:24:29;7.10;99.90
19342;DHT22;9807;48.258;12.690;2023-02-23T07:26:55;7.10;99.90
19342;DHT22;9807;48.258;12.690;2023-02-23T07:29:21;7.20;99.90
19342;DHT22;9807;48.258;12.690;2023-02-23T07:31:48;7.20;99.90
19342;DHT22;9807;48.258;12.690;2023-02-23T07:34:15;7.30;99.90
19342;DHT22;9807;48.258;12.690;2023-02-23T07:36:43;7.60;99.90
19342;DHT22;9807;48.258;12.690;2023-02-23T07:39:09;7.90;99.90
19342;DHT22;9807;48.258;12.690;2023-02-23T07:41:38;7.90;99.90
19342;DHT22;9807;48.258;12.690;2023-02-23T07:44:04;7.90;99.90
19342;DHT22;9807;48.258;12.690;2023-02-23T07:46:30;8.00;99.90
19342;DHT22;9807;48.258;12.690;2023-02-23T07:48:55;8.00;99.90
19342;DHT22;9807;48.258;12.690;2023-02-23T07:51:21;7.80;99.90
19342;DHT22;9807;48.258;12.690;2023-02-23T07:53:47;7.80;99.90
19342;DHT22;9807;48.258;12.690;2023-02-23T07:56:13;7.90;99.90
19342;DHT22;9807;48.258;12.690;2023-02-23T07:58:40;7.90;99.90
19342;DHT22;9807;48.258;12.690;2023-02-23T08:01:07;7.80;99.90
19342;DHT22;9807;48.258;12.690;2023-02-23T08:03:33;7.50;99.90
19342;DHT22;9807;48.258;12.690;2023-02-23T08:05:59;7.30;99.90
19342;DHT22;9807;48.258;12.690;2023-02-23T08:08:24;7.20;99.90
19342;DHT22;9807;48.258;12.690;2023-02-23T08:10:50;7.20;99.90
19342;DHT22;9807;48.258;12.690;2023-02-23T08:13:23;7.50;99.90
19342;DHT22;9807;48.258;12.690;2023-02-23T08:15:48;7.90;99.90
19342;DHT22;9807;48.258;12.690;2023-02-23T08:18:14;8.10;99.90
19342;DHT22;9807;48.258;12.690;2023-02-23T08:20:40;8.00;99.90
19342;DHT22;9807;48.258;12.690;2023-02-23T08:23:05;7.90;99.90
19342;DHT22;9807;48.258;12.690;2023-02-23T08:25:31;7.70;99.90
19342;DHT22;9807;48.258;12.690;2023-02-23T08:27:57;7.70;99.90
19342;DHT22;9807;48.258;12.690;2023-02-23T08:30:28;7.90;99.90
19342;DHT22;9807;48.258;12.690;2023-02-23T08:32:54;8.20;99.90
19342;DHT22;9807;48.258;12.690;2023-02-23T08:35:20;8.30;99.90
19342;DHT22;9807;48.258;12.690;2023-02-23T08:37:47;8.30;99.90
19342;DHT22;9807;48.258;12.690;2023-02-23T08:40:13;8.20;99.90
19342;DHT22;9807;48.258;12.690;2023-02-23T08:42:43;8.20;99.90
19342;DHT22;9807;48.258;12.690;2023-02-23T08:45:11;8.20;99.90
19342;DHT22;9807;48.258;12.690;2023-02-23T08:47:37;8.20;99.90
19342;DHT22;9807;48.258;12.690;2023-02-23T08:50:04;8.40;99.90
19342;DHT22;9807;48.258;12.690;2023-02-23T08:52:30;8.50;99.90
19342;DHT22;9807;48.258;12.690;2023-02-23T08:54:56;8.60;99.90
19342;DHT22;9807;48.258;12.690;2023-02-23T08:57:22;8.80;99.90
19342;DHT22;9807;48.258;12.690;2023-02-23T08:59:48;9.00;99.90
19342;DHT22;9807;48.258;12.690;2023-02-23T09:02:14;9.00;99.90
19342;DHT22;9807;48.258;12.690;2023-02-23T09:04:40;9.00;99.90
19342;DHT22;9807;48.258;12.690;2023-02-23T09:07:13;9.00;99.90
19342;DHT22;9807;48.258;12.690;2023-02-23T09:09:40;8.80;99.90
19342;DHT22;9807;48.258;12.690;2023-02-23T09:12:06;8.80;99.90
19342;DHT22;9807;48.258;12.690;2023-02-23T09:14:32;9.00;99.90
19342;DHT22;9807;48.258;12.690;2023-02-23T09:16:57;9.10;99.90
19342;DHT22;9807;48.258;12.690;2023-02-23T09:19:24;9.10;99.90
19342;DHT22;9807;48.258;12.690;2023-02-23T09:21:52;9.20;99.90
19342;DHT22;9807;48.258;12.690;2023-02-23T09:24:19;9.20;99.90
19342;DHT22;9807;48.258;12.690;2023-02-23T09:26:46;9.30;99.90
19342;DHT22;9807;48.258;12.690;2023-02-23T09:29:12;9.30;99.90
19342;DHT22;9807;48.258;12.690;2023-02-23T09:31:38;9.40;99.90
19342;DHT22;9807;48.258;12.690;2023-02-23T09:34:04;9.40;99.90
19342;DHT22;9807;48.258;12.690;2023-02-23T09:36:30;9.50;99.90
19342;DHT22;9807;48.258;12.690;2023-02-23T09:38:57;9.60;99.90
19342;DHT22;9807;48.258;12.690;2023-02-23T09:49:28;9.60;99.90
19342;DHT22;9807;48.258;12.690;2023-02-23T09:51:57;9.60;99.90
19342;DHT22;9807;48.258;12.690;2023-02-23T09:54:31;9.60;99.90
19342;DHT22;9807;48.258;12.690;2023-02-23T09:57:01;9.60;99.90
19342;DHT22;9807;48.258;12.690;2023-02-23T09:59:28;9.60;99.90
19342;DHT22;9807;48.258;12.690;2023-02-23T10:04:38;9.70;99.90
19342;DHT22;9807;48.258;12.690;2023-02-23T10:13:30;10.00;99.90
19342;DHT22;9807;48.258;12.690;2023-02-23T10:16:20;10.30;99.90
19342;DHT22;9807;48.258;12.690;2023-02-23T10:19:11;10.60;99.90
19342;DHT22;9807;48.258;12.690;2023-02-23T10:21:40;10.80;99.90
19342;DHT22;9807;48.258;12.690;2023-02-23T10:24:20;11.00;99.90
19342;DHT22;9807;48.258;12.690;2023-02-23T10:26:55;11.00;99.90
19342;DHT22;9807;48.258;12.690;2023-02-23T10:29:40;10.90;99.90
19342;DHT22;9807;48.258;12.690;2023-02-23T10:32:19;10.90;99.90
19342;DHT22;9807;48.258;12.690;2023-02-23T10:34:48;10.90;99.90
19342;DHT22;9807;48.258;12.690;2023-02-23T10:37:16;11.00;99.90
19342;DHT22;9807;48.258;12.690;2023-02-23T10:39:42;11.10;99.90
19342;DHT22;9807;48.258;12.690;2023-02-23T10:42:14;11.30;99.90
19342;DHT22;9807;48.258;12.690;2023-02-23T10:44:45;11.50;99.90
19342;DHT22;9807;48.258;12.690;2023-02-23T10:47:17;11.70;99.90
19342;DHT22;9807;48.258;12.690;2023-02-23T10:49:45;11.80;99.90
19342;DHT22;9807;48.258;12.690;2023-02-23T10:52:15;11.90;99.90
19342;DHT22;9807;48.258;12.690;2023-02-23T10:54:47;12.00;99.90
19342;DHT22;9807;48.258;12.690;2023-02-23T10:57:29;12.10;99.90
19342;DHT22;9807;48.258;12.690;2023-02-23T11:02:43;12.10;99.90
19342;DHT22;9807;48.258;12.690;2023-02-23T11:05:34;12.00;99.90
19342;DHT22;9807;48.258;12.690;2023-02-23T11:08:36;12.10;99.90
19342;DHT22;9807;48.258;12.690;2023-02-23T11:11:04;12.10;99.90
19342;DHT22;9807;48.258;12.690;2023-02-23T11:13:36;12.20;99.90
19342;DHT22;9807;48.258;12.690;2023-02-23T11:16:12;12.20;99.90
19342;DHT22;9807;48.258;12.690;2023-02-23T11:18:40;12.20;99.90
19342;DHT22;9807;48.258;12.690;2023-02-23T11:21:11;12.10;99.90
19342;DHT22;9807;48.258;12.690;2023-02-23T11:23:39;12.10;99.90
19342;DHT22;9807;48.258;12.690;2023-02-23T11:26:34;12.10;99.90
19342;DHT22;9807;48.258;12.690;2023-02-23T11:29:18;12.10;99.90
19342;DHT22;9807;48.258;12.690;2023-02-23T11:31:57;12.20;99.90
19342;DHT22;9807;48.258;12.690;2023-02-23T11:34:28;12.20;99.90
19342;DHT22;9807;48.258;12.690;2023-02-23T11:37:01;12.20;99.90
19342;DHT22;9807;48.258;12.690;2023-02-23T11:39:27;12.40;99.90
19342;DHT22;9807;48.258;12.690;2023-02-23T11:44:42;12.40;99.90
19342;DHT22;9807;48.258;12.690;2023-02-23T11:47:22;12.50;99.90
19342;DHT22;9807;48.258;12.690;2023-02-23T11:49:56;12.60;99.90
19342;DHT22;9807;48.258;12.690;2023-02-23T11:52:23;12.60;99.90
19342;DHT22;9807;48.258;12.690;2023-02-23T11:54:53;12.80;99.90
19342;DHT22;9807;48.258;12.690;2023-02-23T11:57:31;12.90;99.90
19342;DHT22;9807;48.258;12.690;2023-02-23T12:00:00;13.00;99.90
19342;DHT22;9807;48.258;12.690;2023-02-23T12:02:28;13.10;99.90
19342;DHT22;9807;48.258;12.690;2023-02-23T12:08:15;12.90;99.90
19342;DHT22;9807;48.258;12.690;2023-02-23T12:10:54;12.90;99.90
19342;DHT22;9807;48.258;12.690;2023-02-23T12:13:26;13.00;99.90
19342;DHT22;9807;48.258;12.690;2023-02-23T12:19:05;12.90;99.90
19342;DHT22;9807;48.258;12.690;2023-02-23T12:21:44;12.90;99.90
19342;DHT22;9807;48.258;12.690;2023-02-23T12:29:30;13.20;99.90
19342;DHT22;9807;48.258;12.690;2023-02-23T12:32:01;13.20;99.90
19342;DHT22;9807;48.258;12.690;2023-02-23T12:46:13;13.50;99.90
19342;DHT22;9807;48.258;12.690;2023-02-23T12:51:50;13.30;99.90
19342;DHT22;9807;48.258;12.690;2023-02-23T12:54:16;13.40;99.90
19342;DHT22;9807;48.258;12.690;2023-02-23T13:02:13;13.50;99.90
19342;DHT22;9807;48.258;12.690;2023-02-23T13:13:17;13.40;99.90
19342;DHT22;9807;48.258;12.690;2023-02-23T13:24:18;13.70;99.90
19342;DHT22;9807;48.258;12.690;2023-02-23T13:31:48;13.90;99.90
19342;DHT22;9807;48.258;12.690;2023-02-23T13:37:13;13.80;99.90
19342;DHT22;9807;48.258;12.690;2023-02-23T13:50:50;13.60;99.90
19342;DHT22;9807;48.258;12.690;2023-02-23T13:56:23;13.50;99.90
19342;DHT22;9807;48.258;12.690;2023-02-23T13:59:17;13.50;99.90
19342;DHT22;9807;48.258;12.690;2023-02-23T14:01:46;13.50;99.90
19342;DHT22;9807;48.258;12.690;2023-02-23T14:04:22;13.60;99.90
19342;DHT22;9807;48.258;12.690;2023-02-23T14:06:54;13.60;99.90
19342;DHT22;9807;48.258;12.690;2023-02-23T14:09:26;13.70;99.90
19342;DHT22;9807;48.258;12.690;2023-02-23T14:12:11;13.70;99.90
19342;DHT22;9807;48.258;12.690;2023-02-23T14:14:43;13.70;99.90
19342;DHT22;9807;48.258;12.690;2023-02-23T14:22:26;14.10;99.90
19342;DHT22;9807;48.258;12.690;2023-02-23T14:28:13;13.90;99.90
19342;DHT22;9807;48.258;12.690;2023-02-23T14:30:49;13.60;99.90
19342;DHT22;9807;48.258;12.690;2023-02-23T14:39:00;13.30;99.90
19342;DHT22;9807;48.258;12.690;2023-02-23T14:41:55;13.30;99.90
19342;DHT22;9807;48.258;12.690;2023-02-23T14:44:35;13.20;99.90
19342;DHT22;9807;48.258;12.690;2023-02-23T14:47:11;13.20;99.90
19342;DHT22;9807;48.258;12.690;2023-02-23T14:49:48;13.20;99.90
19342;DHT22;9807;48.258;12.690;2023-02-23T14:54:47;13.00;99.90
19342;DHT22;9807;48.258;12.690;2023-02-23T14:57:18;13.00;99.90
19342;DHT22;9807;48.258;12.690;2023-02-23T14:59:45;13.10;99.90
19342;DHT22;9807;48.258;12.690;2023-02-23T15:02:21;13.10;99.90
19342;DHT22;9807;48.258;12.690;2023-02-23T15:04:48;13.10;99.90
19342;DHT22;9807;48.258;12.690;2023-02-23T15:07:21;13.10;99.90
19342;DHT22;9807;48.258;12.690;2023-02-23T15:09:53;13.10;99.90
19342;DHT22;9807;48.258;12.690;2023-02-23T15:12:26;13.00;99.90
19342;DHT22;9807;48.258;12.690;2023-02-23T15:15:17;12.90;99.90
19342;DHT22;9807;48.258;12.690;2023-02-23T15:17:46;12.80;99.90
19342;DHT22;9807;48.258;12.690;2023-02-23T15:20:17;12.80;99.90
19342;DHT22;9807;48.258;12.690;2023-02-23T15:22:46;12.70;99.90
19342;DHT22;9807;48.258;12.690;2023-02-23T15:25:34;12.60;99.90
19342;DHT22;9807;48.258;12.690;2023-02-23T15:28:19;12.60;99.90
19342;DHT22;9807;48.258;12.690;2023-02-23T15:30:49;12.70;99.90
19342;DHT22;9807;48.258;12.690;2023-02-23T15:33:16;12.70;99.90
19342;DHT22;9807;48.258;12.690;2023-02-23T15:38:32;12.90;99.90
19342;DHT22;9807;48.258;12.690;2023-02-23T15:41:03;13.00;99.90
19342;DHT22;9807;48.258;12.690;2023-02-23T15:43:31;13.10;99.90
19342;DHT22;9807;48.258;12.690;2023-02-23T15:46:04;13.30;99.90
19342;DHT22;9807;48.258;12.690;2023-02-23T15:48:43;13.40;99.90
19342;DHT22;9807;48.258;12.690;2023-02-23T15:51:34;13.30;99.90
19342;DHT22;9807;48.258;12.690;2023-02-23T15:54:06;13.30;99.90
19342;DHT22;9807;48.258;12.690;2023-02-23T15:56:39;13.30;99.90
19342;DHT22;9807;48.258;12.690;2023-02-23T15:59:11;13.20;99.90
19342;DHT22;9807;48.258;12.690;2023-02-23T16:01:42;13.20;99.90
19342;DHT22;9807;48.258;12.690;2023-02-23T16:06:52;13.20;99.90
19342;DHT22;9807;48.258;12.690;2023-02-23T16:11:53;13.30;99.90
19342;DHT22;9807;48.258;12.690;2023-02-23T16:14:21;13.40;99.90
19342;DHT22;9807;48.258;12.690;2023-02-23T16:16:49;13.50;99.90
19342;DHT22;9807;48.258;12.690;2023-02-23T16:19:18;13.60;99.90
19342;DHT22;9807;48.258;12.690;2023-02-23T16:21:51;13.80;99.90
19342;DHT22;9807;48.258;12.690;2023-02-23T16:24:19;13.80;99.90
19342;DHT22;9807;48.258;12.690;2023-02-23T16:26:51;13.90;99.90
19342;DHT22;9807;48.258;12.690;2023-02-23T16:29:45;13.90;99.90
19342;DHT22;9807;48.258;12.690;2023-02-23T16:32:18;14.00;99.90
19342;DHT22;9807;48.258;12.690;2023-02-23T16:35:15;14.00;99.90
19342;DHT22;9807;48.258;12.690;2023-02-23T16:37:55;14.10;99.90
19342;DHT22;9807;48.258;12.690;2023-02-23T16:40:22;14.00;99.90
19342;DHT22;9807;48.258;12.690;2023-02-23T16:42:48;14.00;99.90
19342;DHT22;9807;48.258;12.690;2023-02-23T16:45:15;14.00;99.90
19342;DHT22;9807;48.258;12.690;2023-02-23T16:47:44;14.00;99.90
19342;DHT22;9807;48.258;12.690;2023-02-23T16:52:43;13.80;99.90
19342;DHT22;9807;48.258;12.690;2023-02-23T16:55:13;13.80;99.90
19342;DHT22;9807;48.258;12.690;2023-02-23T16:57:45;13.80;99.90
19342;DHT22;9807;48.258;12.690;2023-02-23T17:00:14;13.70;99.90
19342;DHT22;9807;48.258;12.690;2023-02-23T17:02:44;13.50;99.90
19342;DHT22;9807;48.258;12.690;2023-02-23T17:05:11;13.30;99.90
19342;DHT22;9807;48.258;12.690;2023-02-23T17:07:38;13.40;99.90
19342;DHT22;9807;48.258;12.690;2023-02-23T17:10:06;13.50;99.90
19342;DHT22;9807;48.258;12.690;2023-02-23T17:12:32;13.50;99.90
19342;DHT22;9807;48.258;12.690;2023-02-23T17:14:57;13.60;99.90
19342;DHT22;9807;48.258;12.690;2023-02-23T17:17:24;13.60;99.90
19342;DHT22;9807;48.258;12.690;2023-02-23T17:19:50;13.50;99.90
19342;DHT22;9807;48.258;12.690;2023-02-23T17:22:15;13.50;99.90
19342;DHT22;9807;48.258;12.690;2023-02-23T17:24:41;13.40;99.90
19342;DHT22;9807;48.258;12.690;2023-02-23T17:27:08;13.30;99.90
19342;DHT22;9807;48.258;12.690;2023-02-23T17:29:35;13.30;99.90
19342;DHT22;9807;48.258;12.690;2023-02-23T17:32:01;13.30;99.90
19342;DHT22;9807;48.258;12.690;2023-02-23T17:34:27;13.40;99.90
19342;DHT22;9807;48.258;12.690;2023-02-23T17:36:53;13.40;99.90
19342;DHT22;9807;48.258;12.690;2023-02-23T17:39:22;13.20;99.90
19342;DHT22;9807;48.258;12.690;2023-02-23T17:41:52;13.10;99.90
19342;DHT22;9807;48.258;12.690;2023-02-23T17:44:18;12.90;99.90
19342;DHT22;9807;48.258;12.690;2023-02-23T17:46:43;13.00;99.90
19342;DHT22;9807;48.258;12.690;2023-02-23T17:49:09;12.80;99.90
19342;DHT22;9807;48.258;12.690;2023-02-23T17:51:35;12.20;99.90
19342;DHT22;9807;48.258;12.690;2023-02-23T17:54:01;11.50;99.90
19342;DHT22;9807;48.258;12.690;2023-02-23T17:56:27;10.90;99.90
19342;DHT22;9807;48.258;12.690;2023-02-23T17:58:55;10.70;99.90
19342;DHT22;9807;48.258;12.690;2023-02-23T18:01:21;10.50;99.90
19342;DHT22;9807;48.258;12.690;2023-02-23T18:03:47;10.40;99.90
19342;DHT22;9807;48.258;12.690;2023-02-23T18:06:14;9.90;99.90
19342;DHT22;9807;48.258;12.690;2023-02-23T18:08:41;9.70;99.90
19342;DHT22;9807;48.258;12.690;2023-02-23T18:11:07;9.50;99.90
19342;DHT22;9807;48.258;12.690;2023-02-23T18:13:33;9.70;99.90
19342;DHT22;9807;48.258;12.690;2023-02-23T18:16:05;10.00;99.90
19342;DHT22;9807;48.258;12.690;2023-02-23T18:18:37;10.50;99.90
19342;DHT22;9807;48.258;12.690;2023-02-23T18:21:10;11.00;99.90
19342;DHT22;9807;48.258;12.690;2023-02-23T18:23:36;11.30;99.90
19342;DHT22;9807;48.258;12.690;2023-02-23T18:26:13;11.20;99.90
19342;DHT22;9807;48.258;12.690;2023-02-23T18:28:39;10.70;99.90
19342;DHT22;9807;48.258;12.690;2023-02-23T18:31:18;10.30;99.90
19342;DHT22;9807;48.258;12.690;2023-02-23T18:33:43;10.00;99.90
19342;DHT22;9807;48.258;12.690;2023-02-23T18:36:19;9.80;99.90
19342;DHT22;9807;48.258;12.690;2023-02-23T18:38:45;9.70;99.90
19342;DHT22;9807;48.258;12.690;2023-02-23T18:41:11;9.50;99.90
19342;DHT22;9807;48.258;12.690;2023-02-23T18:43:38;9.40;99.90
19342;DHT22;9807;48.258;12.690;2023-02-23T18:46:07;9.30;99.90